This London Heathrow Airport weather forecast is generated by the Met Office Weather Widget

AirNav RadarBox - Metar Weather
  London Heathrow Metar Weather
 

METAR = EGLL 010850Z 26010KT 9999 SCT014 SCT017 14/12 Q1016 TEMPO BKN014

STATION........ EGLL
OBSERVED....... Sat Nov 1, 08:50 UTC
NOW............ Sat Nov 1, 09:23 UTC
AGE............ 33 min ago
WIND........... W at 12 mph
VISIBILITY..... 16 miles
CLOUDS......... scattered clouds
TEMP........... 57°F (14°C)
DEWPT.......... 54°F (12°C)
HUMIDITY....... 88%
BAROMETER...... 1016 hPa (30 in Hg)

Sat Nov 01 2014, sunrise time : 07:00
Sat Nov 01 2014, sunset time : 16:30